Time;durP1;ratioP1;P1;durP2;ratioP2;P2;SDS_P1;SDS_P2;PMS_P1;PMS_P2;Temp;Humidity;BMP_temperature;BMP_pressure;BME280_temperature;BME280_humidity;BME280_pressure;Samples;Min_cycle;Max_cycle;Signal;HPM_P1;HPM_P2
2023/07/18 00:02:27;;;;;;;5.32;3.72;;;;;;;13.86;86.67;101444.16;7396890;19;20034;-67
2023/07/18 00:04:56;;;;;;;7.07;3.78;;;;;;;13.84;86.93;101456.53;7398794;19;20552;-67
2023/07/18 00:07:25;;;;;;;4.28;3.25;;;;;;;13.82;86.83;101458.31;7399176;19;20040;-66
2023/07/18 00:09:56;;;;;;;5.00;3.42;;;;;;;13.79;86.69;101461.91;7399067;19;20019;-67
2023/07/18 00:12:24;;;;;;;6.55;3.88;;;;;;;13.77;86.87;101455.78;7397657;19;20086;-66
2023/07/18 00:14:53;;;;;;;4.60;3.47;;;;;;;13.74;86.74;101458.50;7396702;19;20023;-66
2023/07/18 00:17:21;;;;;;;6.68;3.80;;;;;;;13.73;86.84;101455.91;7398430;19;20481;-66
2023/07/18 00:19:50;;;;;;;9.07;3.70;;;;;;;13.68;87.13;101458.66;7398680;19;20074;-66
2023/07/18 00:22:19;;;;;;;7.72;3.97;;;;;;;13.65;86.91;101456.09;7397776;19;20014;-66
2023/07/18 00:24:48;;;;;;;4.85;3.20;;;;;;;13.62;86.92;101451.78;7396118;19;20027;-66
2023/07/18 00:27:19;;;;;;;4.93;3.38;;;;;;;13.59;86.79;101450.97;7398453;19;20035;-66
2023/07/18 00:29:47;;;;;;;5.05;3.45;;;;;;;13.56;86.67;101451.03;7398508;19;20082;-66
2023/07/18 00:32:16;;;;;;;8.13;3.85;;;;;;;13.55;87.01;101449.28;7397092;19;20543;-66
2023/07/18 00:34:44;;;;;;;6.68;3.65;;;;;;;13.52;87.10;101450.22;7397658;19;20031;-66
2023/07/18 00:37:13;;;;;;;5.65;3.50;;;;;;;13.49;87.00;101453.78;7397690;19;20089;-66
2023/07/18 00:39:41;;;;;;;5.65;3.50;;;;;;;13.47;87.04;101449.47;7397601;19;20090;-65
2023/07/18 00:42:10;;;;;;;7.90;3.80;;;;;;;13.45;86.82;101449.50;7396020;19;20074;-66
2023/07/18 00:44:41;;;;;;;5.65;3.58;;;;;;;13.44;86.86;101441.63;7397471;19;20090;-65
2023/07/18 00:47:10;;;;;;;7.22;3.88;;;;;;;13.44;87.18;101442.50;7397881;19;20018;-65
2023/07/18 00:49:39;;;;;;;5.68;3.50;;;;;;;13.43;87.03;101445.16;7395777;19;20078;-65
2023/07/18 00:52:08;;;;;;;6.13;3.70;;;;;;;13.41;86.96;101447.84;7396910;19;20070;-65
2023/07/18 00:54:38;;;;;;;5.55;3.58;;;;;;;13.39;87.58;101446.16;7397516;19;20014;-66
2023/07/18 00:57:09;;;;;;;5.18;3.13;;;;;;;13.35;87.15;101456.69;7395255;19;20481;-65
2023/07/18 00:59:41;;;;;;;5.97;3.88;;;;;;;13.32;87.48;101446.25;7395925;19;20070;-65
2023/07/18 01:02:09;;;;;;;9.45;4.30;;;;;;;13.29;87.29;101453.34;7395587;19;20081;-66
2023/07/18 01:04:39;;;;;;;5.10;3.83;;;;;;;13.25;87.36;101451.69;7396831;19;20022;-66
2023/07/18 01:07:08;;;;;;;5.57;3.83;;;;;;;13.22;87.75;101449.09;7395095;19;20018;-65
2023/07/18 01:09:36;;;;;;;6.82;3.88;;;;;;;13.18;87.95;101454.44;7396741;19;20506;-65
2023/07/18 01:12:05;;;;;;;6.22;4.35;;;;;;;13.16;87.70;101452.75;7396395;19;20078;-65
2023/07/18 01:14:34;;;;;;;6.53;4.47;;;;;;;13.13;88.00;101443.13;7396070;19;20007;-65
2023/07/18 01:17:08;;;;;;;5.82;4.20;;;;;;;13.11;87.83;101457.25;7396432;19;20031;-65
2023/07/18 01:19:37;;;;;;;4.03;3.53;;;;;;;13.09;87.73;101453.75;7396930;19;20035;-65
2023/07/18 01:22:08;;;;;;;6.88;4.55;;;;;;;13.08;87.86;101454.66;7394664;19;20418;-64
2023/07/18 01:24:37;;;;;;;5.10;4.20;;;;;;;13.06;87.96;101449.44;7395440;19;20019;-64
2023/07/18 01:27:06;;;;;;;5.82;4.25;;;;;;;13.04;88.14;101453.84;7394472;19;20021;-65
2023/07/18 01:29:34;;;;;;;6.07;4.03;;;;;;;13.02;88.45;101458.31;7396431;19;20014;-64
2023/07/18 01:32:03;;;;;;;5.43;4.60;;;;;;;12.98;88.52;101464.53;7395538;19;20506;-65
2023/07/18 01:34:31;;;;;;;8.32;3.85;;;;;;;12.95;88.27;101460.16;7396289;19;20094;-65
2023/07/18 01:37:00;;;;;;;6.53;4.50;;;;;;;12.93;88.47;101451.44;7396115;19;20010;-65
2023/07/18 01:39:31;;;;;;;6.47;4.55;;;;;;;12.91;88.54;101455.03;7396117;19;20041;-64
2023/07/18 01:42:00;;;;;;;6.03;4.22;;;;;;;12.88;88.56;101459.44;7394615;19;20362;-65
2023/07/18 01:44:28;;;;;;;6.50;4.80;;;;;;;12.85;88.48;101451.63;7396666;19;20034;-66
2023/07/18 01:46:57;;;;;;;5.95;4.38;;;;;;;12.84;88.61;101455.13;7394272;19;20027;-65
2023/07/18 01:49:25;;;;;;;7.93;5.07;;;;;;;12.81;88.69;101460.44;7393856;19;20085;-65
2023/07/18 01:51:54;;;;;;;6.35;4.47;;;;;;;12.78;88.73;101465.78;7397020;19;20023;-65
2023/07/18 01:54:22;;;;;;;6.03;4.50;;;;;;;12.78;88.80;101468.41;7397667;19;20481;-65
2023/07/18 01:56:53;;;;;;;6.20;5.45;;;;;;;12.77;89.14;101479.84;7396650;19;20028;-65
2023/07/18 01:59:22;;;;;;;6.63;4.68;;;;;;;12.75;89.17;101472.88;7393654;19;20508;-65
2023/07/18 02:01:51;;;;;;;5.45;4.20;;;;;;;12.76;89.22;101477.25;7394279;19;20073;-65
2023/07/18 02:04:20;;;;;;;6.78;4.85;;;;;;;12.73;89.13;101466.78;7395419;19;20034;-65
2023/07/18 02:06:48;;;;;;;4.95;4.10;;;;;;;12.73;89.27;101467.66;7395298;19;20018;-65
2023/07/18 02:09:17;;;;;;;6.88;4.72;;;;;;;12.70;89.43;101465.06;7393180;19;20011;-65
2023/07/18 02:11:45;;;;;;;7.13;4.38;;;;;;;12.70;89.36;101459.78;7394477;19;20081;-64
2023/07/18 02:14:19;;;;;;;6.65;5.10;;;;;;;12.68;89.65;101466.88;7393625;19;20082;-64
2023/07/18 02:16:48;;;;;;;7.80;5.22;;;;;;;12.68;89.59;101470.34;7395418;19;20378;-65
2023/07/18 02:19:16;;;;;;;10.05;4.90;;;;;;;12.66;89.88;101472.16;7394483;19;20090;-65
2023/07/18 02:21:45;;;;;;;6.97;4.57;;;;;;;12.66;89.83;101481.81;7393490;19;20078;-65
2023/07/18 02:24:13;;;;;;;6.15;4.60;;;;;;;12.66;89.91;101487.06;7394885;19;20078;-65
2023/07/18 02:26:42;;;;;;;7.68;5.10;;;;;;;12.64;89.91;101484.47;7394449;19;20430;-65
2023/07/18 02:29:10;;;;;;;6.75;5.10;;;;;;;12.64;89.87;101491.53;7394281;19;20488;-65
2023/07/18 02:31:41;;;;;;;5.97;4.85;;;;;;;12.61;89.81;101495.09;7392719;19;20086;-65
2023/07/18 02:34:10;;;;;;;8.45;5.50;;;;;;;12.59;90.16;101485.47;7394227;19;20027;-65
2023/07/18 02:36:38;;;;;;;7.97;5.45;;;;;;;12.58;90.17;101492.50;7394010;19;20082;-65
2023/07/18 02:39:10;;;;;;;6.78;5.32;;;;;;;12.57;90.12;101487.25;7392320;19;20081;-65
2023/07/18 02:41:39;;;;;;;9.13;5.47;;;;;;;12.53;90.20;101487.28;7391884;19;20019;-65
2023/07/18 02:44:07;;;;;;;8.35;6.05;;;;;;;12.50;90.34;101482.09;7394334;19;20090;-65
2023/07/18 02:46:36;;;;;;;7.40;5.93;;;;;;;12.51;90.49;101491.75;7394368;19;20019;-65
2023/07/18 02:49:07;;;;;;;9.52;5.97;;;;;;;12.49;90.49;101498.78;7393804;19;20436;-65
2023/07/18 02:51:35;;;;;;;7.68;5.55;;;;;;;12.47;90.61;101497.97;7393644;19;20549;-65
2023/07/18 02:54:04;;;;;;;7.05;6.10;;;;;;;12.46;90.46;101496.22;7394135;19;20070;-65
2023/07/18 02:56:34;;;;;;;9.95;5.47;;;;;;;12.45;90.62;101494.47;7393664;19;20376;-65
2023/07/18 02:59:02;;;;;;;7.90;5.68;;;;;;;12.43;90.76;101496.25;7399496;19;20026;-65
2023/07/18 03:01:31;;;;;;;9.80;6.00;;;;;;;12.42;90.73;101499.78;7400281;19;20082;-65
2023/07/18 03:04:00;;;;;;;8.25;6.18;;;;;;;12.40;90.77;101498.94;7398106;19;20552;-65
2023/07/18 03:06:31;;;;;;;8.27;6.65;;;;;;;12.39;91.12;101499.84;7401111;19;20015;-65
2023/07/18 03:09:01;;;;;;;11.80;6.13;;;;;;;12.38;91.01;101501.63;7401441;19;20022;-65
2023/07/18 03:11:30;;;;;;;10.98;6.07;;;;;;;12.37;91.10;101509.50;7400279;19;20014;-65
2023/07/18 03:13:58;;;;;;;8.75;5.97;;;;;;;12.38;91.23;101508.63;7399030;19;20422;-65
2023/07/18 03:16:26;;;;;;;7.50;6.60;;;;;;;12.37;91.09;101512.16;7400606;19;20078;-65
2023/07/18 03:18:55;;;;;;;11.15;6.60;;;;;;;12.36;91.25;101515.69;7400487;19;20082;-65
2023/07/18 03:21:23;;;;;;;9.60;6.25;;;;;;;12.35;91.28;101513.97;7397976;19;20026;-65
2023/07/18 03:23:55;;;;;;;8.90;6.78;;;;;;;12.34;91.45;101522.75;7400730;19;20021;-65
2023/07/18 03:26:23;;;;;;;13.68;6.55;;;;;;;12.31;91.64;101531.56;7400745;19;20367;-66
2023/07/18 03:28:52;;;;;;;11.38;7.03;;;;;;;12.31;91.50;101522.78;7400167;19;20035;-66
2023/07/18 03:31:20;;;;;;;9.25;6.50;;;;;;;12.30;91.46;101529.81;7400291;19;20017;-65
2023/07/18 03:33:49;;;;;;;10.57;7.63;;;;;;;12.29;91.57;101516.69;7397324;19;20015;-65
2023/07/18 03:36:17;;;;;;;12.23;7.28;;;;;;;12.30;91.59;101515.78;7396945;19;20361;-65
2023/07/18 03:38:46;;;;;;;11.82;7.13;;;;;;;12.29;91.75;101512.28;7400234;19;20015;-65
2023/07/18 03:41:17;;;;;;;9.48;6.95;;;;;;;12.29;91.70;101512.28;7399563;19;20024;-66
2023/07/18 03:43:46;;;;;;;8.25;6.85;;;;;;;12.31;91.70;101517.50;7397304;19;20023;-66
2023/07/18 03:46:14;;;;;;;13.75;6.93;;;;;;;12.30;91.83;101526.31;7399666;19;20021;-66
2023/07/18 03:48:43;;;;;;;10.93;6.68;;;;;;;12.32;91.81;101519.25;7400074;19;20041;-65
2023/07/18 03:51:11;;;;;;;10.23;7.65;;;;;;;12.31;91.98;101513.13;7399362;19;20070;-65
2023/07/18 03:53:40;;;;;;;13.45;7.95;;;;;;;12.32;91.88;101514.00;7397329;19;20023;-67
2023/07/18 03:56:09;;;;;;;13.00;8.25;;;;;;;12.32;92.00;101519.25;7398984;19;20011;-65
2023/07/18 03:58:40;;;;;;;9.13;7.65;;;;;;;12.32;91.95;101514.00;7399465;19;20045;-65
2023/07/18 04:01:10;;;;;;;10.50;7.25;;;;;;;12.31;91.96;101507.88;7400397;19;20017;-66
2023/07/18 04:03:39;;;;;;;12.18;8.02;;;;;;;12.32;91.77;101512.25;7396488;19;20030;-66
2023/07/18 04:06:08;;;;;;;12.15;7.57;;;;;;;12.32;92.03;101509.63;7395935;19;20368;-65
2023/07/18 04:08:37;;;;;;;10.43;7.40;;;;;;;12.32;92.36;101514.00;7397861;19;20073;-65
2023/07/18 04:11:05;;;;;;;11.80;7.07;;;;;;;12.33;92.05;101514.00;7397501;19;20015;-65
2023/07/18 04:13:34;;;;;;;13.13;7.93;;;;;;;12.35;92.15;101511.31;7395282;19;20077;-65
2023/07/18 04:16:07;;;;;;;12.02;7.72;;;;;;;12.37;92.32;101504.25;7397646;19;20017;-65
2023/07/18 04:18:35;;;;;;;10.32;7.50;;;;;;;12.37;92.06;101501.63;7398811;19;20018;-66
2023/07/18 04:21:04;;;;;;;11.25;7.72;;;;;;;12.39;91.94;101505.09;7397840;19;20493;-66
2023/07/18 04:23:33;;;;;;;12.50;7.53;;;;;;;12.42;92.22;101504.19;7395960;19;20028;-65
2023/07/18 04:26:03;;;;;;;9.07;7.50;;;;;;;12.45;92.09;101501.47;7397815;19;20022;-65
2023/07/18 04:28:34;;;;;;;11.13;7.65;;;;;;;12.47;92.08;101505.84;7395687;19;20078;-66
2023/07/18 04:31:05;;;;;;;9.20;7.30;;;;;;;12.50;92.06;101502.31;7398251;19;20037;-65
2023/07/18 04:33:36;;;;;;;12.27;8.15;;;;;;;12.52;92.15;101497.84;7395306;19;20423;-65
2023/07/18 04:36:06;;;;;;;11.40;9.13;;;;;;;12.55;92.02;101506.56;7395369;19;20426;-65
2023/07/18 04:38:34;;;;;;;14.30;7.63;;;;;;;12.58;92.27;101508.28;7398646;19;20015;-66
2023/07/18 04:41:04;;;;;;;12.90;7.72;;;;;;;12.62;92.03;101502.06;7397039;19;20022;-66
2023/07/18 04:43:32;;;;;;;12.52;7.43;;;;;;;12.66;91.91;101500.25;7395252;19;20029;-66
2023/07/18 04:46:01;;;;;;;11.18;7.53;;;;;;;12.69;91.88;101502.84;7396708;19;20489;-67
2023/07/18 04:48:32;;;;;;;10.20;7.75;;;;;;;12.73;92.07;101498.38;7396811;19;20096;-67
2023/07/18 04:51:02;;;;;;;10.75;6.75;;;;;;;12.77;91.87;101503.53;7396973;19;20023;-67
2023/07/18 04:53:32;;;;;;;12.20;7.45;;;;;;;12.81;91.69;101502.56;7395917;19;20402;-67
2023/07/18 04:56:01;;;;;;;11.73;7.32;;;;;;;12.85;91.68;101506.03;7396816;19;20049;-66
2023/07/18 04:58:30;;;;;;;10.45;7.70;;;;;;;12.90;91.71;101500.69;7396550;19;20078;-66
2023/07/18 05:00:59;;;;;;;11.25;7.45;;;;;;;12.93;91.82;101506.75;7396038;19;20569;-66
2023/07/18 05:03:37;;;;;;;12.43;7.70;;;;;;;12.98;91.69;101504.91;7394268;19;20082;-67
2023/07/18 05:06:05;;;;;;;10.07;6.57;;;;;;;13.03;91.71;101499.56;7395488;19;20019;-67
2023/07/18 05:08:33;;;;;;;11.75;7.13;;;;;;;13.07;91.52;101508.25;7395972;19;20437;-67
2023/07/18 05:11:03;;;;;;;10.63;7.03;;;;;;;13.11;91.44;101507.31;7396375;19;20074;-67
2023/07/18 05:13:31;;;;;;;11.05;7.22;;;;;;;13.16;91.31;101519.47;7393613;19;20362;-66
2023/07/18 05:16:08;;;;;;;11.68;7.75;;;;;;;13.23;91.42;101519.34;7393846;19;20010;-66
2023/07/18 05:18:39;;;;;;;10.45;6.85;;;;;;;13.29;91.08;101517.44;7393764;19;20353;-66
2023/07/18 05:21:08;;;;;;;10.80;6.97;;;;;;;13.36;91.01;101526.13;7394516;19;20023;-66
2023/07/18 05:23:37;;;;;;;9.38;6.72;;;;;;;13.41;90.84;101518.13;7393431;19;20034;-66
2023/07/18 05:26:08;;;;;;;11.48;7.68;;;;;;;13.45;90.96;101515.41;7395568;19;20021;-67
2023/07/18 05:28:36;;;;;;;8.63;6.50;;;;;;;13.50;90.79;101524.06;7395890;19;20018;-66
2023/07/18 05:31:09;;;;;;;10.18;7.00;;;;;;;13.56;90.79;101522.19;7393800;19;20018;-66
2023/07/18 05:33:40;;;;;;;10.27;7.03;;;;;;;13.60;90.60;101521.25;7394184;19;20375;-67
2023/07/18 05:36:09;;;;;;;11.80;6.50;;;;;;;13.66;90.47;101524.63;7395784;19;20018;-67
2023/07/18 05:38:37;;;;;;;9.75;6.53;;;;;;;13.73;90.40;101530.59;7395816;19;20035;-67
2023/07/18 05:41:05;;;;;;;13.55;7.13;;;;;;;13.82;90.26;101525.13;7395810;19;20034;-66
2023/07/18 05:43:34;;;;;;;13.55;6.47;;;;;;;13.89;90.44;101524.97;7393321;19;20049;-66
2023/07/18 05:46:02;;;;;;;11.68;6.65;;;;;;;13.95;90.37;101524.84;7395796;19;20078;-65
2023/07/18 05:48:31;;;;;;;9.90;6.30;;;;;;;14.03;90.08;101522.91;7395086;19;20082;-66
2023/07/18 05:51:02;;;;;;;8.75;6.55;;;;;;;14.12;90.16;101533.22;7395550;19;20029;-67
2023/07/18 05:53:31;;;;;;;8.63;6.72;;;;;;;14.20;89.65;101537.47;7394804;19;20468;-67
2023/07/18 05:55:59;;;;;;;8.52;5.95;;;;;;;14.25;89.34;101532.94;7397405;19;20085;-67
2023/07/18 05:58:28;;;;;;;10.52;6.25;;;;;;;14.28;89.59;101531.09;7397961;19;20019;-66
2023/07/18 06:00:56;;;;;;;12.10;6.70;;;;;;;14.35;89.36;101526.53;7396794;19;20488;-67
2023/07/18 06:03:25;;;;;;;10.70;6.45;;;;;;;14.40;89.45;101522.00;7396059;19;20070;-67
2023/07/18 06:05:56;;;;;;;11.75;6.63;;;;;;;14.44;89.03;101523.63;7397117;19;20014;-66
2023/07/18 06:08:27;;;;;;;8.93;6.30;;;;;;;14.50;89.20;101527.91;7397114;19;20082;-69
2023/07/18 06:10:59;;;;;;;10.18;6.88;;;;;;;14.57;89.16;101531.25;7394952;19;20517;-67
2023/07/18 06:13:28;;;;;;;10.13;6.53;;;;;;;14.61;89.32;101531.13;7395956;19;20377;-67
2023/07/18 06:15:56;;;;;;;8.75;5.72;;;;;;;14.67;88.79;101530.13;7393009;19;20014;-67
2023/07/18 06:18:25;;;;;;;11.95;5.63;;;;;;;14.73;88.76;101527.31;7394391;19;20078;-67
2023/07/18 06:20:53;;;;;;;11.07;7.10;;;;;;;14.77;88.73;101526.38;7394620;19;20077;-67
2023/07/18 06:23:22;;;;;;;12.50;5.80;;;;;;;14.82;88.79;101527.09;7392681;19;20074;-67
2023/07/18 06:25:55;;;;;;;11.05;6.53;;;;;;;14.89;88.69;101525.16;7394458;19;20019;-67
2023/07/18 06:28:24;;;;;;;10.35;6.45;;;;;;;14.94;88.53;101525.88;7394390;19;20424;-68
2023/07/18 06:30:56;;;;;;;9.90;5.57;;;;;;;15.02;88.38;101532.75;7393959;19;20019;-68
2023/07/18 06:33:26;;;;;;;9.05;6.00;;;;;;;15.07;88.08;101529.06;7395443;19;20015;-68
2023/07/18 06:35:55;;;;;;;9.43;5.03;;;;;;;15.16;87.89;101520.00;7402093;19;20486;-68
2023/07/18 06:38:24;;;;;;;8.63;5.35;;;;;;;15.23;87.58;101524.22;7401775;19;20022;-68
2023/07/18 06:40:55;;;;;;;12.32;6.28;;;;;;;15.30;87.16;101520.47;7401838;19;20024;-68
2023/07/18 06:43:24;;;;;;;8.90;5.03;;;;;;;15.37;87.12;101522.94;7399085;19;20025;-68
2023/07/18 06:45:53;;;;;;;10.10;5.55;;;;;;;15.42;86.94;101519.25;7397969;19;20365;-68
2023/07/18 06:48:21;;;;;;;9.13;5.65;;;;;;;15.50;86.85;101520.81;7401334;19;20078;-68
2023/07/18 06:50:52;;;;;;;13.32;6.35;;;;;;;15.55;86.46;101525.03;7401700;19;20074;-68
2023/07/18 06:53:22;;;;;;;8.98;5.53;;;;;;;15.59;86.47;101525.81;7398793;19;20090;-69
2023/07/18 06:55:51;;;;;;;11.00;5.60;;;;;;;15.64;86.08;101515.94;7401758;19;20073;-69
2023/07/18 06:58:22;;;;;;;10.52;5.20;;;;;;;15.72;86.20;101523.66;7399128;19;20527;-68
2023/07/18 07:00:51;;;;;;;10.18;4.90;;;;;;;15.77;85.99;101525.25;7402044;19;20081;-68
2023/07/18 07:03:19;;;;;;;13.63;6.15;;;;;;;15.85;85.73;101526.84;7398975;19;20019;-69
2023/07/18 07:05:48;;;;;;;8.98;5.63;;;;;;;15.91;85.56;101521.31;7402270;19;20088;-68
2023/07/18 07:08:19;;;;;;;8.93;4.82;;;;;;;15.96;85.09;101522.03;7402308;19;20078;-69
2023/07/18 07:10:47;;;;;;;11.27;5.38;;;;;;;16.02;84.74;101513.03;7399580;19;20041;-68
2023/07/18 07:13:16;;;;;;;8.88;5.28;;;;;;;16.06;84.80;101504.97;7398741;19;20022;-68
2023/07/18 07:15:47;;;;;;;16.00;5.93;;;;;;;16.15;84.76;101513.50;7397951;19;20028;-68
2023/07/18 07:18:15;;;;;;;9.05;4.88;;;;;;;16.19;84.57;101507.19;7402555;19;20361;-68
2023/07/18 07:20:44;;;;;;;9.40;4.53;;;;;;;16.26;84.38;101519.31;7401974;19;20097;-68
2023/07/18 07:23:12;;;;;;;10.60;5.80;;;;;;;16.32;84.19;101513.81;7400163;19;20070;-68
2023/07/18 07:25:40;;;;;;;10.90;5.85;;;;;;;16.39;84.05;101511.81;7402980;19;20082;-69
2023/07/18 07:28:09;;;;;;;7.40;4.95;;;;;;;16.46;83.25;101510.69;7401106;19;20491;-69
2023/07/18 07:30:38;;;;;;;8.55;4.60;;;;;;;16.56;83.31;101516.56;7401652;19;20018;-69
2023/07/18 07:33:09;;;;;;;9.07;5.10;;;;;;;16.67;82.31;101517.03;7398530;19;20074;-69
2023/07/18 07:35:37;;;;;;;14.23;4.82;;;;;;;16.81;81.89;101518.31;7401509;19;20029;-69
2023/07/18 07:38:06;;;;;;;9.80;4.93;;;;;;;16.93;81.41;101516.16;7400520;19;20015;-69
2023/07/18 07:40:34;;;;;;;13.90;4.60;;;;;;;17.03;80.98;101527.28;7400949;19;20149;-69
2023/07/18 07:43:04;;;;;;;10.20;4.70;;;;;;;17.12;80.67;101520.78;7398047;19;20476;-69
2023/07/18 07:45:32;;;;;;;9.38;4.43;;;;;;;17.23;80.02;101515.94;7395999;19;20074;-69
2023/07/18 07:48:00;;;;;;;7.68;4.68;;;;;;;17.37;79.23;101515.41;7400853;19;20074;-69
2023/07/18 07:50:32;;;;;;;10.60;4.25;;;;;;;17.52;78.40;101510.47;7400814;19;20019;-69
2023/07/18 07:53:01;;;;;;;9.75;4.10;;;;;;;17.58;77.94;101505.75;7397693;19;20034;-69
2023/07/18 07:55:30;;;;;;;7.18;4.07;;;;;;;17.65;77.64;101511.69;7400692;19;20082;-69
2023/07/18 07:57:58;;;;;;;9.20;3.70;;;;;;;17.73;76.95;101509.63;7398396;19;20010;-69
2023/07/18 08:00:27;;;;;;;8.90;4.18;;;;;;;17.80;76.23;101509.38;7400294;19;20011;-69
2023/07/18 08:02:55;;;;;;;8.80;3.25;;;;;;;17.88;75.25;101510.78;7398885;19;20422;-69
2023/07/18 08:05:24;;;;;;;8.02;3.50;;;;;;;17.96;74.64;101507.84;7400867;19;20018;-69
2023/07/18 08:07:55;;;;;;;7.95;3.53;;;;;;;18.04;73.86;101497.78;7400019;19;20078;-70
2023/07/18 08:10:24;;;;;;;7.80;3.20;;;;;;;18.13;73.37;101501.00;7401944;19;20018;-68
2023/07/18 08:12:52;;;;;;;7.15;3.45;;;;;;;18.19;72.67;101490.97;7397268;19;20015;-68
2023/07/18 08:15:22;;;;;;;10.02;3.92;;;;;;;18.26;72.50;101499.56;7397821;19;20027;-68
2023/07/18 08:17:50;;;;;;;9.20;4.30;;;;;;;18.36;71.57;101494.69;7400121;19;20175;-68
2023/07/18 08:20:19;;;;;;;9.32;3.47;;;;;;;18.43;71.25;101498.84;7399920;19;20021;-69
2023/07/18 08:22:47;;;;;;;7.85;2.88;;;;;;;18.52;69.93;101498.44;7400290;19;20086;-69
2023/07/18 08:25:19;;;;;;;7.55;2.85;;;;;;;18.57;68.94;101484.94;7399177;19;20021;-69
2023/07/18 08:27:47;;;;;;;7.07;2.47;;;;;;;18.66;68.32;101484.53;7401318;19;20015;-69
2023/07/18 08:30:16;;;;;;;6.75;2.80;;;;;;;18.72;67.50;101483.41;7401262;19;20018;-69
2023/07/18 08:32:44;;;;;;;6.63;2.92;;;;;;;18.75;66.81;101475.28;7399855;19;20087;-70
2023/07/18 08:35:13;;;;;;;6.10;2.33;;;;;;;18.78;65.83;101484.94;7401366;19;20018;-68
2023/07/18 08:37:41;;;;;;;4.25;2.40;;;;;;;18.79;64.92;101478.69;7401277;19;20078;-69
2023/07/18 08:40:12;;;;;;;5.63;2.92;;;;;;;18.79;64.12;101468.06;7402172;19;20014;-69
2023/07/18 08:42:44;;;;;;;7.05;2.90;;;;;;;18.83;64.46;101465.19;7399325;19;20129;-69
2023/07/18 08:45:16;;;;;;;4.82;2.20;;;;;;;18.91;63.66;101467.53;7401468;19;20022;-68
2023/07/18 08:47:44;;;;;;;5.30;2.35;;;;;;;18.95;61.40;101463.81;7398950;19;20020;-69
2023/07/18 08:50:13;;;;;;;6.70;2.42;;;;;;;18.96;61.26;101452.22;7401639;19;20021;-69
2023/07/18 08:52:42;;;;;;;6.05;2.65;;;;;;;19.03;61.47;101455.47;7398828;19;20121;-68
2023/07/18 08:55:11;;;;;;;4.88;2.50;;;;;;;19.08;61.17;101457.91;7400413;19;20078;-68
2023/07/18 08:57:44;;;;;;;4.90;2.63;;;;;;;19.12;61.07;101448.84;7399396;19;20090;-68
2023/07/18 09:00:14;;;;;;;4.53;2.25;;;;;;;19.19;60.72;101450.31;7399559;19;20022;-68
2023/07/18 09:02:43;;;;;;;5.20;2.42;;;;;;;19.28;60.39;101446.34;7398378;19;20022;-68
2023/07/18 09:05:33;;;;;;;3.72;2.10;;;;;;;19.37;58.52;101451.22;7397608;19;20086;-68
2023/07/18 09:08:03;;;;;;;5.07;2.20;;;;;;;19.50;59.10;101435.56;7399905;19;20054;-70
2023/07/18 09:10:32;;;;;;;3.40;2.22;;;;;;;19.62;59.57;101431.44;7399308;19;20074;-70
2023/07/18 09:13:07;;;;;;;8.15;3.20;;;;;;;19.74;57.95;101433.50;7398233;19;20086;-69
2023/07/18 09:15:37;;;;;;;5.82;2.22;;;;;;;19.86;57.74;101440.03;7397748;19;20010;-69
2023/07/18 09:18:06;;;;;;;3.70;2.22;;;;;;;19.96;57.45;101429.78;7399707;19;20010;-69
2023/07/18 09:20:35;;;;;;;7.32;2.17;;;;;;;20.04;57.35;101424.91;7399452;19;20023;-69
2023/07/18 09:23:05;;;;;;;5.68;2.53;;;;;;;20.14;56.57;101427.97;7397773;19;20422;-68
2023/07/18 09:25:40;;;;;;;4.13;2.30;;;;;;;20.22;56.53;101425.81;7399431;19;20015;-68
2023/07/18 09:28:14;;;;;;;3.70;2.00;;;;;;;20.33;55.83;101427.88;7399421;19;20021;-69
2023/07/18 09:30:43;;;;;;;2.90;2.20;;;;;;;20.41;55.62;101424.81;7401148;19;20015;-69
2023/07/18 09:33:12;;;;;;;3.65;2.05;;;;;;;20.44;54.81;101420.19;7397668;19;20022;-69
2023/07/18 09:35:42;;;;;;;2.40;1.88;;;;;;;20.41;53.35;101414.16;7397655;19;20424;-69
2023/07/18 09:38:12;;;;;;;5.35;2.10;;;;;;;20.39;53.37;101413.41;7397374;19;20015;-69
2023/07/18 09:40:42;;;;;;;4.90;2.00;;;;;;;20.38;52.94;101419.66;7399274;19;20477;-69
2023/07/18 09:43:14;;;;;;;4.03;2.45;;;;;;;20.41;52.82;101416.81;7397484;19;20558;-69
2023/07/18 09:45:44;;;;;;;6.35;2.55;;;;;;;20.45;53.36;101416.59;7399629;19;20074;-69
2023/07/18 09:48:13;;;;;;;4.90;2.35;;;;;;;20.50;53.39;101411.03;7399480;19;20015;-69
2023/07/18 09:50:44;;;;;;;3.78;2.22;;;;;;;20.52;53.35;101411.78;7400514;19;20023;-68
2023/07/18 09:53:14;;;;;;;5.15;2.72;;;;;;;20.56;53.34;101418.72;7396622;19;20031;-70
2023/07/18 09:55:43;;;;;;;4.28;2.00;;;;;;;20.59;53.43;101417.69;7398273;19;20073;-69
2023/07/18 09:58:17;;;;;;;4.50;2.05;;;;;;;20.59;52.61;101413.19;7398679;19;20453;-69
2023/07/18 10:00:46;;;;;;;3.97;2.10;;;;;;;20.59;52.62;101409.69;7397361;19;20018;-69
2023/07/18 10:03:15;;;;;;;5.03;2.40;;;;;;;20.58;52.20;101405.28;7397299;19;20078;-70
2023/07/18 10:05:44;;;;;;;2.85;1.70;;;;;;;20.57;52.46;101400.91;7398153;19;20050;-69
2023/07/18 10:08:13;;;;;;;4.45;2.50;;;;;;;20.59;51.18;101404.34;7396958;19;20019;-70
2023/07/18 10:10:42;;;;;;;5.13;2.42;;;;;;;20.61;51.20;101400.66;7399158;19;20021;-69
2023/07/18 10:13:10;;;;;;;3.10;1.75;;;;;;;20.60;51.27;101404.25;7397171;19;20017;-71
2023/07/18 10:16:08;;;;;;;2.95;1.70;;;;;;;20.59;49.41;101407.00;7397038;19;20074;-71
2023/07/18 10:18:48;;;;;;;6.85;2.10;;;;;;;20.64;50.63;101389.81;7396325;19;20021;-70
2023/07/18 10:21:31;;;;;;;11.10;5.53;;;;;;;20.71;49.35;101384.19;7397536;19;20381;-70
2023/07/18 10:24:00;;;;;;;5.60;2.25;;;;;;;20.82;50.90;101379.97;7396891;19;20010;-70
2023/07/18 10:26:33;;;;;;;4.00;2.25;;;;;;;20.93;50.96;101376.72;7397501;19;20367;-68
2023/07/18 10:29:03;;;;;;;7.43;2.43;;;;;;;21.02;50.34;101369.19;7397788;19;20015;-69
2023/07/18 10:31:33;;;;;;;4.60;2.30;;;;;;;21.07;50.36;101365.28;7397164;19;20023;-69
2023/07/18 10:34:14;;;;;;;4.32;2.00;;;;;;;21.11;49.16;101360.66;7397664;19;20070;-68
2023/07/18 10:36:43;;;;;;;3.25;1.48;;;;;;;21.13;49.69;101362.28;7398262;19;20023;-69
2023/07/18 10:39:14;;;;;;;4.82;2.00;;;;;;;21.12;49.42;101349.03;7395795;19;20416;-69
2023/07/18 10:41:46;;;;;;;3.88;1.95;;;;;;;21.13;49.08;101356.94;7398121;19;20014;-68
2023/07/18 10:44:15;;;;;;;3.25;1.77;;;;;;;21.16;48.97;101351.41;7396181;19;20085;-69
2023/07/18 10:46:43;;;;;;;4.78;2.30;;;;;;;21.22;47.67;101342.22;7396554;19;20023;-70
2023/07/18 10:49:28;;;;;;;3.88;1.98;;;;;;;21.30;47.51;101347.13;7395996;19;20023;-68
2023/07/18 10:51:57;;;;;;;4.63;2.20;;;;;;;21.37;47.55;101339.59;7397176;19;20022;-68
2023/07/18 10:54:25;;;;;;;8.13;1.60;;;;;;;21.48;47.58;101327.38;7396680;19;20018;-68
2023/07/18 10:56:54;;;;;;;2.78;2.00;;;;;;;21.59;46.99;101333.91;7397740;19;20078;-68
2023/07/18 10:59:22;;;;;;;4.90;1.92;;;;;;;21.67;47.44;101325.44;7396395;19;20025;-69
2023/07/18 11:01:51;;;;;;;4.20;2.00;;;;;;;21.70;46.53;101325.25;7396643;19;20014;-68
2023/07/18 11:04:24;;;;;;;4.38;2.00;;;;;;;21.70;44.23;101318.13;7395379;19;20370;-69
2023/07/18 11:07:03;;;;;;;2.67;1.60;;;;;;;21.68;44.23;101316.50;7396998;19;20058;-68
2023/07/18 11:09:32;;;;;;;3.03;1.42;;;;;;;21.64;44.97;101311.31;7394506;19;20104;-69
2023/07/18 11:12:02;;;;;;;2.00;1.50;;;;;;;21.72;44.67;101302.00;7394419;19;20090;-69
2023/07/18 11:14:39;;;;;;;4.65;1.70;;;;;;;21.82;43.78;101303.16;7395251;19;20023;-69
2023/07/18 11:17:13;;;;;;;3.53;1.67;;;;;;;21.86;44.10;101309.19;7395459;19;20081;-69
2023/07/18 11:19:45;;;;;;;5.97;2.03;;;;;;;21.87;44.33;101293.06;7396740;19;20014;-70
2023/07/18 11:22:14;;;;;;;2.17;1.75;;;;;;;21.87;44.67;101295.72;7401263;19;20018;-69
2023/07/18 11:24:43;;;;;;;3.60;1.85;;;;;;;21.90;44.10;101290.22;7403223;19;20395;-69
2023/07/18 11:27:21;;;;;;;5.13;2.85;;;;;;;21.97;42.50;101286.19;7403156;19;20017;-68
2023/07/18 11:30:09;;;;;;;3.35;1.80;;;;;;;22.03;43.14;101284.97;7402578;19;20007;-70
2023/07/18 11:32:38;;;;;;;4.78;2.33;;;;;;;22.11;44.25;101284.50;7402083;19;20023;-70
2023/07/18 11:35:11;;;;;;;4.25;2.28;;;;;;;22.22;43.32;101284.69;7402187;19;20036;-68